createdAt,value
2017-04-20T00:00:03.676Z,62.40
2017-04-20T00:00:25.360Z,62.48
2017-04-20T00:00:47.157Z,62.24
2017-04-20T00:01:13.643Z,62.54
2017-04-20T00:01:35.359Z,62.64
2017-04-20T00:01:57.166Z,62.30
2017-04-20T00:02:28.420Z,62.42
2017-04-20T00:02:50.135Z,62.18
2017-04-20T00:03:57.434Z,62.33
2017-04-20T00:04:19.161Z,62.20
2017-04-20T00:05:26.251Z,61.70
2017-04-20T00:05:47.967Z,61.62
2017-04-20T00:06:55.256Z,61.09
2017-04-20T00:07:48.360Z,61.33
2017-04-20T00:08:10.056Z,61.39
2017-04-20T00:08:36.566Z,61.47
2017-04-20T00:08:58.287Z,61.49
2017-04-20T00:09:20.068Z,61.70
2017-04-20T00:09:46.554Z,61.65
2017-04-20T00:10:08.276Z,61.82
2017-04-20T00:10:34.811Z,61.77
2017-04-20T00:10:56.567Z,62.03
2017-04-20T00:11:18.340Z,62.04
2017-04-20T00:12:25.616Z,61.93
2017-04-20T00:12:47.317Z,61.56
2017-04-20T00:13:09.012Z,61.21
2017-04-20T00:13:30.854Z,61.33
2017-04-20T00:13:52.564Z,61.56
2017-04-20T00:14:14.274Z,61.71
2017-04-20T00:14:35.966Z,61.90
2017-04-20T00:14:57.769Z,62.00
2017-04-20T00:15:29.055Z,61.80
2017-04-20T00:15:50.761Z,61.66
2017-04-20T00:16:12.525Z,61.80
2017-04-20T00:16:34.274Z,61.84
2017-04-20T00:16:56.052Z,61.85
2017-04-20T00:17:22.681Z,61.78
2017-04-20T00:17:44.411Z,61.73
2017-04-20T00:18:15.687Z,61.65
2017-04-20T00:18:37.447Z,61.99
2017-04-20T00:19:08.744Z,62.23
2017-04-20T00:19:30.412Z,62.01
2017-04-20T00:20:01.790Z,61.99
2017-04-20T00:20:23.413Z,61.79
2017-04-20T00:20:54.716Z,61.42
2017-04-20T00:21:16.504Z,61.37
2017-04-20T00:21:47.979Z,61.09
2017-04-20T00:22:09.665Z,60.93
2017-04-20T00:22:36.224Z,60.74
2017-04-20T00:22:57.930Z,60.93
2017-04-20T00:23:24.410Z,61.03
2017-04-20T00:23:46.337Z,61.38
2017-04-20T00:24:08.168Z,61.67
2017-04-20T00:25:06.739Z,62.30
2017-04-20T00:25:28.463Z,62.33
2017-04-20T00:25:50.198Z,62.65
2017-04-20T00:26:16.720Z,62.62
2017-04-20T00:26:38.450Z,62.36
2017-04-20T00:27:00.155Z,62.14
2017-04-20T00:27:26.642Z,62.29
2017-04-20T00:27:48.410Z,62.21
2017-04-20T00:28:10.123Z,62.16
2017-04-20T00:29:12.632Z,62.13
2017-04-20T00:29:34.342Z,62.08
2017-04-20T00:30:00.845Z,61.79
2017-04-20T00:30:22.620Z,61.90
2017-04-20T00:30:44.323Z,61.69
2017-04-20T00:31:10.791Z,61.75
2017-04-20T00:31:32.580Z,61.79
2017-04-20T00:31:54.273Z,61.80
2017-04-20T00:32:20.749Z,61.70
2017-04-20T00:32:42.453Z,61.90
2017-04-20T00:33:09.017Z,61.96
2017-04-20T00:33:30.754Z,62.04
2017-04-20T00:33:52.477Z,62.00
2017-04-20T00:34:50.984Z,61.77
2017-04-20T00:35:12.686Z,62.01
2017-04-20T00:36:11.168Z,62.57
2017-04-20T00:36:32.894Z,62.65
2017-04-20T00:36:54.608Z,62.85
2017-04-20T00:37:21.162Z,63.05
2017-04-20T00:37:42.866Z,63.03
2017-04-20T00:38:09.339Z,62.81
2017-04-20T00:38:31.064Z,62.71
2017-04-20T00:39:00.237Z,62.67
2017-04-20T00:39:21.935Z,62.75
2017-04-20T00:39:48.407Z,62.61
2017-04-20T00:40:10.125Z,62.51
2017-04-20T00:40:36.711Z,62.43
2017-04-20T00:40:58.427Z,62.61
2017-04-20T00:41:24.914Z,62.43
2017-04-20T00:41:46.621Z,62.55
2017-04-20T00:42:13.177Z,62.73
2017-04-20T00:42:34.941Z,63.01
2017-04-20T00:43:01.477Z,62.96
2017-04-20T00:43:23.275Z,62.85
2017-04-20T00:43:44.990Z,62.94
2017-04-20T00:44:06.728Z,63.15
2017-04-20T00:44:38.102Z,62.86
2017-04-20T00:44:59.750Z,62.39
2017-04-20T00:46:27.290Z,61.87
2017-04-20T00:46:49.013Z,62.06
2017-04-20T00:47:10.706Z,61.98
2017-04-20T00:48:17.998Z,62.04
2017-04-20T00:48:39.793Z,62.11
2017-04-20T00:49:06.390Z,62.22
2017-04-20T00:49:28.136Z,61.87
2017-04-20T00:50:35.392Z,62.28
2017-04-20T00:51:06.648Z,62.66
2017-04-20T00:51:28.364Z,63.03
2017-04-20T00:51:50.159Z,63.32
2017-04-20T00:52:16.652Z,63.45
2017-04-20T00:52:38.404Z,63.50
2017-04-20T00:53:45.688Z,63.53
2017-04-20T00:54:12.155Z,63.44
2017-04-20T00:54:43.423Z,63.05
2017-04-20T00:55:05.167Z,63.36
2017-04-20T00:55:36.446Z,63.61
2017-04-20T00:55:59.243Z,63.55
2017-04-20T00:56:30.501Z,63.85
2017-04-20T00:56:52.198Z,63.72
2017-04-20T00:57:13.942Z,63.61
2017-04-20T00:57:35.653Z,63.47
2017-04-20T00:57:57.375Z,63.92
2017-04-20T00:58:19.094Z,63.99
2017-04-20T00:58:50.368Z,64.13
2017-04-20T00:59:12.197Z,64.00
2017-04-20T00:59:33.884Z,63.70
2017-04-20T00:59:55.574Z,63.39
2017-04-20T01:00:17.276Z,63.71
2017-04-20T01:00:38.987Z,63.88
2017-04-20T01:01:00.700Z,64.07
2017-04-20T01:01:31.954Z,63.91
2017-04-20T01:01:53.658Z,63.74
2017-04-20T01:02:15.358Z,63.94
2017-04-20T01:02:48.782Z,64.01
2017-04-20T01:03:16.604Z,63.59
2017-04-20T01:03:43.662Z,63.23
2017-04-20T01:04:05.347Z,63.24
2017-04-20T01:05:07.854Z,63.03
2017-04-20T01:05:29.559Z,63.37
2017-04-20T01:06:27.993Z,63.69
2017-04-20T01:06:49.686Z,63.69
2017-04-20T01:07:11.397Z,63.99
2017-04-20T01:07:38.197Z,63.94
2017-04-20T01:07:59.945Z,63.73
2017-04-20T01:08:21.632Z,63.82
2017-04-20T01:08:48.104Z,63.77
2017-04-20T01:09:09.800Z,63.61
2017-04-20T01:09:31.496Z,63.83
2017-04-20T01:09:53.204Z,63.70
2017-04-20T01:10:14.899Z,63.51
2017-04-20T01:11:16.150Z,64.42
2017-04-20T01:11:37.846Z,64.37
2017-04-20T01:11:59.553Z,63.95
2017-04-20T01:12:21.263Z,64.13
2017-04-20T01:12:42.953Z,63.86
2017-04-20T01:13:04.694Z,63.83
2017-04-20T01:13:26.399Z,63.76
2017-04-20T01:13:52.867Z,63.50
2017-04-20T01:14:14.579Z,63.54
2017-04-20T01:14:36.282Z,63.61
2017-04-20T01:14:57.982Z,63.48
2017-04-20T01:15:24.459Z,63.00
2017-04-20T01:15:46.167Z,62.98
2017-04-20T01:16:07.853Z,63.22
2017-04-20T01:16:29.575Z,63.24
2017-04-20T01:16:51.257Z,63.12
2017-04-20T01:17:12.960Z,62.77
2017-04-20T01:17:34.662Z,62.61
2017-04-20T01:17:56.383Z,62.59
2017-04-20T01:18:18.123Z,62.65
2017-04-20T01:19:20.625Z,63.24
2017-04-20T01:19:47.121Z,63.46
2017-04-20T01:20:08.806Z,63.41
2017-04-20T01:20:35.295Z,62.88
2017-04-20T01:20:56.987Z,62.87
2017-04-20T01:21:23.473Z,63.17
2017-04-20T01:21:45.174Z,63.61
2017-04-20T01:22:06.866Z,63.58
2017-04-20T01:23:05.142Z,63.16
2017-04-20T01:23:26.870Z,62.78
2017-04-20T01:24:29.368Z,62.83
2017-04-20T01:24:51.071Z,63.14
2017-04-20T01:25:12.797Z,63.04
2017-04-20T01:25:34.482Z,63.02
2017-04-20T01:25:56.186Z,62.92
2017-04-20T01:26:58.736Z,63.35
2017-04-20T01:27:22.987Z,63.19
2017-04-20T01:27:54.233Z,63.03
2017-04-20T01:28:15.979Z,63.15
2017-04-20T01:28:47.237Z,63.13
2017-04-20T01:29:09.077Z,62.81
2017-04-20T01:29:35.554Z,62.68
2017-04-20T01:29:57.251Z,62.54
2017-04-20T01:30:18.965Z,62.60
2017-04-20T01:30:40.672Z,62.78
2017-04-20T01:31:02.380Z,62.71
2017-04-20T01:31:24.085Z,62.94
2017-04-20T01:31:45.783Z,63.04
2017-04-20T01:32:07.471Z,63.07
2017-04-20T01:32:29.386Z,62.67
2017-04-20T01:32:51.092Z,62.82
2017-04-20T01:34:00.291Z,62.53
2017-04-20T01:34:22.011Z,62.40
2017-04-20T01:34:43.719Z,62.22
2017-04-20T01:35:10.223Z,62.61
2017-04-20T01:35:32.921Z,62.62
2017-04-20T01:36:35.426Z,63.02
2017-04-20T01:36:57.129Z,63.14
2017-04-20T01:37:55.457Z,63.04
2017-04-20T01:38:17.174Z,63.14
2017-04-20T01:38:48.433Z,63.31
2017-04-20T01:39:10.137Z,63.25
2017-04-20T01:39:41.393Z,63.40
2017-04-20T01:40:03.302Z,63.27
2017-04-20T01:40:29.775Z,63.19
2017-04-20T01:40:51.470Z,63.35
2017-04-20T01:41:13.171Z,63.44
2017-04-20T01:42:11.476Z,63.58
2017-04-20T01:43:09.708Z,63.41
2017-04-20T01:44:17.036Z,63.30
2017-04-20T01:44:38.837Z,63.34
2017-04-20T01:45:00.529Z,63.52
2017-04-20T01:45:22.230Z,63.74
2017-04-20T01:45:43.940Z,63.75
2017-04-20T01:46:05.700Z,63.93
2017-04-20T01:46:32.200Z,64.14
2017-04-20T01:46:54.061Z,64.02
2017-04-20T01:47:52.415Z,63.78
2017-04-20T01:48:50.663Z,63.78
2017-04-20T01:49:48.935Z,63.95
2017-04-20T01:50:20.200Z,63.75
2017-04-20T01:50:41.898Z,63.60
2017-04-20T01:51:08.385Z,63.61
2017-04-20T01:51:30.078Z,63.58
2017-04-20T01:51:51.784Z,63.50
2017-04-20T01:52:18.318Z,63.20
2017-04-20T01:53:16.668Z,62.59
2017-04-20T01:53:47.924Z,62.54
2017-04-20T01:54:09.647Z,62.58
2017-04-20T01:54:40.919Z,62.46
2017-04-20T01:55:02.629Z,62.48
2017-04-20T01:55:24.371Z,62.51
2017-04-20T01:55:50.897Z,62.72
2017-04-20T01:56:12.684Z,62.58
2017-04-20T01:57:15.310Z,62.37
2017-04-20T01:57:37.004Z,62.44
2017-04-20T01:57:58.770Z,62.43
2017-04-20T01:58:20.487Z,62.53
2017-04-20T01:58:42.207Z,62.59
2017-04-20T01:59:03.898Z,62.93
2017-04-20T01:59:25.614Z,63.03
2017-04-20T01:59:52.145Z,62.75
2017-04-20T02:00:13.878Z,62.99
2017-04-20T02:00:40.367Z,63.16
2017-04-20T02:01:02.098Z,63.13
2017-04-20T02:01:28.599Z,63.62
2017-04-20T02:01:50.341Z,63.61
2017-04-20T02:02:16.830Z,63.52
2017-04-20T02:02:43.324Z,63.31
2017-04-20T02:03:09.811Z,63.16
2017-04-20T02:03:31.511Z,62.99
2017-04-20T02:03:58.001Z,62.99
2017-04-20T02:04:19.812Z,62.94
2017-04-20T02:04:51.069Z,63.08
2017-04-20T02:05:12.791Z,62.99
2017-04-20T02:05:34.510Z,62.85
2017-04-20T02:05:56.205Z,62.80
2017-04-20T02:06:18.013Z,63.19
2017-04-20T02:06:49.402Z,63.41
2017-04-20T02:07:11.103Z,63.21
2017-04-20T02:07:42.488Z,63.09
2017-04-20T02:08:04.115Z,63.15
2017-04-20T02:08:35.421Z,63.09
2017-04-20T02:08:57.178Z,62.61
2017-04-20T02:09:28.454Z,62.72
2017-04-20T02:10:30.979Z,62.91
2017-04-20T02:10:52.710Z,63.22
2017-04-20T02:11:14.430Z,63.58
2017-04-20T02:11:45.803Z,63.97
2017-04-20T02:12:07.452Z,64.30
2017-04-20T02:12:33.936Z,64.13
2017-04-20T02:12:55.635Z,63.93
2017-04-20T02:13:17.448Z,63.91
2017-04-20T02:13:48.734Z,63.74
2017-04-20T02:14:10.443Z,63.55
2017-04-20T02:15:12.960Z,63.22
2017-04-20T02:15:34.672Z,63.29
2017-04-20T02:16:34.139Z,63.15
2017-04-20T02:17:05.416Z,63.41
2017-04-20T02:17:27.192Z,63.53
2017-04-20T02:17:48.905Z,63.64
2017-04-20T02:18:15.387Z,63.65
2017-04-20T02:18:37.085Z,63.52
2017-04-20T02:19:39.613Z,63.55
2017-04-20T02:20:01.311Z,63.21
2017-04-20T02:20:27.793Z,63.09
2017-04-20T02:20:49.601Z,63.22
2017-04-20T02:21:20.869Z,63.15
2017-04-20T02:21:42.562Z,63.02
2017-04-20T02:22:04.365Z,62.91
2017-04-20T02:22:30.857Z,62.94
2017-04-20T02:22:52.802Z,62.91
2017-04-20T02:23:19.365Z,63.12
2017-04-20T02:23:41.133Z,63.18
2017-04-20T02:24:07.649Z,63.19
2017-04-20T02:24:29.367Z,62.90
2017-04-20T02:24:51.187Z,62.74
2017-04-20T02:25:17.676Z,62.55
2017-04-20T02:25:39.395Z,62.76
2017-04-20T02:26:46.662Z,62.63
2017-04-20T02:27:08.391Z,62.87
2017-04-20T02:27:30.116Z,62.85
2017-04-20T02:27:56.685Z,63.22
2017-04-20T02:28:18.389Z,63.70
2017-04-20T02:28:49.675Z,63.89
2017-04-20T02:29:11.453Z,64.30
2017-04-20T02:29:37.932Z,63.95
2017-04-20T02:29:59.695Z,63.77
2017-04-20T02:30:26.221Z,64.03
2017-04-20T02:30:47.931Z,64.08
2017-04-20T02:31:14.420Z,64.08
2017-04-20T02:31:36.140Z,63.85
2017-04-20T02:31:57.911Z,63.37
2017-04-20T02:32:24.388Z,63.20
2017-04-20T02:32:46.090Z,63.08
2017-04-20T02:33:44.611Z,63.22
2017-04-20T02:34:06.306Z,63.16
2017-04-20T02:35:13.584Z,62.72
2017-04-20T02:35:35.309Z,62.99
2017-04-20T02:36:01.797Z,63.05
2017-04-20T02:36:23.578Z,62.88
2017-04-20T02:36:50.050Z,62.61
2017-04-20T02:37:11.739Z,62.55
2017-04-20T02:37:33.447Z,62.46
2017-04-20T02:37:59.999Z,62.40
2017-04-20T02:38:21.695Z,62.64
2017-04-20T02:38:53.049Z,63.24
2017-04-20T02:39:14.846Z,63.52
2017-04-20T02:39:41.330Z,63.58
2017-04-20T02:40:03.045Z,63.51
2017-04-20T02:41:01.535Z,63.46
2017-04-20T02:41:23.233Z,63.46
2017-04-20T02:41:49.731Z,63.42
2017-04-20T02:42:11.523Z,63.46
2017-04-20T02:42:42.819Z,63.80
2017-04-20T02:43:04.510Z,63.92
2017-04-20T02:43:35.891Z,63.72
2017-04-20T02:43:57.535Z,63.70
2017-04-20T02:44:24.014Z,63.92
2017-04-20T02:44:45.707Z,63.85
2017-04-20T02:45:07.479Z,63.91
2017-04-20T02:45:33.956Z,63.88
2017-04-20T02:45:55.669Z,63.71
2017-04-20T02:47:02.943Z,63.11
2017-04-20T02:47:24.642Z,63.43
2017-04-20T02:47:51.211Z,63.80
2017-04-20T02:48:12.913Z,63.66
2017-04-20T02:48:34.628Z,63.73
2017-04-20T02:49:05.882Z,63.55
2017-04-20T02:49:27.674Z,63.52
2017-04-20T02:49:49.389Z,63.55
2017-04-20T02:50:15.855Z,63.74
2017-04-20T02:50:37.644Z,64.13
2017-04-20T02:50:59.349Z,64.17
2017-04-20T02:51:25.821Z,64.17
2017-04-20T02:51:47.529Z,64.02
2017-04-20T02:52:14.100Z,63.86
2017-04-20T02:52:35.821Z,63.99
2017-04-20T02:52:57.519Z,64.01
2017-04-20T02:53:28.765Z,63.90
2017-04-20T02:53:50.551Z,63.96
2017-04-20T02:54:12.278Z,63.80
2017-04-20T02:55:19.554Z,63.60
2017-04-20T02:55:41.294Z,63.63
2017-04-20T02:56:03.004Z,63.56
2017-04-20T02:56:29.553Z,63.52
2017-04-20T02:56:51.357Z,63.44
2017-04-20T02:57:54.199Z,64.09
2017-04-20T02:58:20.703Z,64.10
2017-04-20T02:58:42.421Z,64.42
2017-04-20T02:59:04.205Z,64.25
2017-04-20T02:59:25.932Z,64.20
2017-04-20T02:59:52.431Z,64.15
2017-04-20T03:00:14.139Z,64.38
2017-04-20T03:00:40.714Z,64.45
2017-04-20T03:01:02.408Z,64.49
2017-04-20T03:01:28.883Z,64.61
2017-04-20T03:01:50.615Z,64.60
2017-04-20T03:02:12.404Z,64.72
2017-04-20T03:02:43.654Z,64.57
2017-04-20T03:03:05.359Z,64.45
2017-04-20T03:03:36.619Z,64.38
2017-04-20T03:03:58.416Z,64.37
2017-04-20T03:04:32.091Z,64.30
2017-04-20T03:04:53.888Z,64.37
2017-04-20T03:05:20.374Z,64.47
2017-04-20T03:05:42.065Z,64.46
2017-04-20T03:06:08.675Z,64.18
2017-04-20T03:06:30.371Z,63.97
2017-04-20T03:06:52.113Z,63.98
2017-04-20T03:07:18.659Z,63.98
2017-04-20T03:07:40.358Z,64.12
2017-04-20T03:08:06.852Z,64.30
2017-04-20T03:08:28.544Z,64.38
2017-04-20T03:08:55.105Z,64.65
2017-04-20T03:09:16.851Z,64.74
2017-04-20T03:09:43.323Z,64.51
2017-04-20T03:10:05.018Z,64.57
2017-04-20T03:10:26.806Z,64.79
2017-04-20T03:10:53.290Z,64.90
2017-04-20T03:11:14.990Z,64.87
2017-04-20T03:11:41.543Z,64.79
2017-04-20T03:12:03.275Z,64.49
2017-04-20T03:13:35.576Z,64.83
2017-04-20T03:13:57.284Z,64.96
2017-04-20T03:14:19.018Z,64.82
2017-04-20T03:14:50.282Z,64.88
2017-04-20T03:15:12.288Z,64.67
2017-04-20T03:15:38.785Z,64.61
2017-04-20T03:16:00.482Z,64.56
2017-04-20T03:16:22.270Z,64.69
2017-04-20T03:16:48.747Z,64.54
2017-04-20T03:17:10.774Z,64.55
2017-04-20T03:17:37.331Z,64.51
2017-04-20T03:17:59.031Z,64.56
2017-04-20T03:19:01.376Z,64.23
2017-04-20T03:19:29.100Z,63.84
2017-04-20T03:19:55.628Z,63.90
2017-04-20T03:20:18.131Z,63.77
2017-04-20T03:20:39.845Z,63.71
2017-04-20T03:21:01.567Z,63.61
2017-04-20T03:21:23.310Z,63.59
2017-04-20T03:21:45.463Z,63.52
2017-04-20T03:22:07.334Z,63.59
2017-04-20T03:22:29.156Z,63.58
2017-04-20T03:22:51.436Z,63.61
2017-04-20T03:23:13.152Z,63.81
2017-04-20T03:23:34.968Z,63.96
2017-04-20T03:23:56.814Z,63.93
2017-04-20T03:24:19.031Z,63.83
2017-04-20T03:24:40.821Z,63.66
2017-04-20T03:25:02.930Z,63.57
2017-04-20T03:25:25.120Z,63.77
2017-04-20T03:25:46.986Z,63.83
2017-04-20T03:26:11.599Z,63.92
2017-04-20T03:26:33.682Z,63.95
2017-04-20T03:26:57.699Z,64.13
2017-04-20T03:27:19.971Z,64.31
2017-04-20T03:27:41.714Z,64.37
2017-04-20T03:28:03.437Z,64.42
2017-04-20T03:28:25.423Z,64.59
2017-04-20T03:28:47.396Z,64.42
2017-04-20T03:29:09.421Z,64.04
2017-04-20T03:29:31.178Z,63.87
2017-04-20T03:29:53.263Z,64.21
2017-04-20T03:30:15.016Z,64.49
2017-04-20T03:30:36.889Z,64.81
2017-04-20T03:30:58.704Z,64.62
2017-04-20T03:31:20.446Z,64.49
2017-04-20T03:32:24.039Z,64.91
2017-04-20T03:32:50.624Z,64.88
2017-04-20T03:33:58.234Z,64.91
2017-04-20T03:34:20.531Z,65.10
2017-04-20T03:34:42.273Z,65.19
2017-04-20T03:35:04.076Z,65.21
2017-04-20T03:35:25.780Z,65.38
2017-04-20T03:35:47.552Z,65.62
2017-04-20T03:36:09.284Z,65.32
2017-04-20T03:36:31.066Z,65.43
2017-04-20T03:37:33.965Z,65.28
2017-04-20T03:37:55.830Z,65.25
2017-04-20T03:38:17.622Z,65.35
2017-04-20T03:38:39.599Z,65.41
2017-04-20T03:39:01.360Z,65.72
2017-04-20T03:39:23.133Z,65.44
2017-04-20T03:39:50.345Z,65.42
2017-04-20T03:40:12.280Z,65.35
2017-04-20T03:40:34.101Z,65.24
2017-04-20T03:40:56.029Z,65.36
2017-04-20T03:41:17.899Z,65.46
2017-04-20T03:41:39.637Z,65.71
2017-04-20T03:42:01.442Z,65.54
2017-04-20T03:42:23.415Z,65.42
2017-04-20T03:42:45.533Z,65.37
2017-04-20T03:43:07.596Z,65.18
2017-04-20T03:43:29.621Z,65.41
2017-04-20T03:43:51.492Z,65.16
2017-04-20T03:44:13.435Z,65.20
2017-04-20T03:44:35.279Z,65.35
2017-04-20T03:44:56.963Z,65.44
2017-04-20T03:45:19.939Z,65.66
2017-04-20T03:45:44.623Z,65.73
2017-04-20T03:46:08.930Z,65.74
2017-04-20T03:46:30.648Z,65.79
2017-04-20T03:46:52.987Z,65.96
2017-04-20T03:47:14.791Z,65.78
2017-04-20T03:47:36.487Z,65.65
2017-04-20T03:47:58.335Z,65.76
2017-04-20T03:48:22.998Z,65.72
2017-04-20T03:48:45.255Z,65.46
2017-04-20T03:49:07.014Z,65.50
2017-04-20T03:49:28.817Z,65.36
2017-04-20T03:49:50.745Z,65.13
2017-04-20T03:50:12.465Z,65.05
2017-04-20T03:50:34.246Z,65.02
2017-04-20T03:50:56.242Z,64.87
2017-04-20T03:51:18.135Z,64.78
2017-04-20T03:52:20.976Z,64.99
2017-04-20T03:52:42.747Z,65.09
2017-04-20T03:53:04.693Z,65.11
2017-04-20T03:53:56.499Z,65.25
2017-04-20T03:54:18.477Z,65.22
2017-04-20T03:54:40.237Z,65.00
2017-04-20T03:55:04.689Z,65.03
2017-04-20T03:55:26.506Z,64.79
2017-04-20T03:55:48.567Z,64.74
2017-04-20T03:56:10.349Z,64.80
2017-04-20T03:56:32.355Z,64.73
2017-04-20T03:56:54.365Z,64.55
2017-04-20T03:57:16.311Z,64.72
2017-04-20T03:57:38.403Z,64.61
2017-04-20T03:58:00.894Z,64.76
2017-04-20T03:58:22.928Z,64.71
2017-04-20T03:58:44.747Z,64.72
2017-04-20T03:59:06.826Z,64.63
2017-04-20T03:59:33.480Z,64.41
2017-04-20T04:00:43.105Z,64.72
2017-04-20T04:01:15.735Z,64.99
2017-04-20T04:01:40.696Z,65.14
2017-04-20T04:02:02.559Z,65.00
2017-04-20T04:02:33.853Z,65.14
2017-04-20T04:02:55.573Z,65.38
2017-04-20T04:03:26.991Z,65.29
2017-04-20T04:03:50.281Z,65.64
2017-04-20T04:05:02.552Z,65.71
2017-04-20T04:05:24.632Z,65.98
2017-04-20T04:05:49.467Z,66.39
2017-04-20T04:06:11.191Z,66.47
2017-04-20T04:06:34.010Z,66.61
2017-04-20T04:06:56.618Z,66.59
2017-04-20T04:07:18.503Z,66.58
2017-04-20T04:07:40.438Z,66.34
2017-04-20T04:08:02.906Z,66.19
2017-04-20T04:08:24.978Z,66.03
2017-04-20T04:08:50.167Z,66.05
2017-04-20T04:09:12.312Z,65.57
2017-04-20T04:09:36.771Z,65.60
2017-04-20T04:09:58.614Z,65.35
2017-04-20T04:10:20.489Z,65.39
2017-04-20T04:10:42.404Z,65.45
2017-04-20T04:11:04.468Z,65.78
2017-04-20T04:11:26.747Z,65.78
2017-04-20T04:11:48.843Z,65.63
2017-04-20T04:12:11.759Z,65.51
2017-04-20T04:12:33.649Z,65.43
2017-04-20T04:12:55.394Z,65.43
2017-04-20T04:13:17.291Z,65.50
2017-04-20T04:13:41.810Z,65.63
2017-04-20T04:14:03.675Z,65.55
2017-04-20T04:14:27.951Z,65.39
2017-04-20T04:14:49.708Z,65.34
2017-04-20T04:15:11.555Z,65.35
2017-04-20T04:15:33.589Z,65.39
2017-04-20T04:15:55.319Z,65.57
2017-04-20T04:16:17.070Z,65.74
2017-04-20T04:16:38.837Z,65.65
2017-04-20T04:17:00.747Z,65.66
2017-04-20T04:17:22.485Z,65.59
2017-04-20T04:17:44.839Z,65.53
2017-04-20T04:18:06.617Z,65.81
2017-04-20T04:18:28.435Z,65.72
2017-04-20T04:18:50.191Z,65.57
2017-04-20T04:19:17.215Z,65.74
2017-04-20T04:19:43.954Z,65.63
2017-04-20T04:20:05.857Z,65.92
2017-04-20T04:20:37.311Z,65.86
2017-04-20T04:20:59.244Z,65.53
2017-04-20T04:21:25.775Z,65.52
2017-04-20T04:21:57.248Z,65.45
2017-04-20T04:22:22.188Z,65.47
2017-04-20T04:22:43.928Z,65.66
2017-04-20T04:23:09.117Z,65.62
2017-04-20T04:23:30.945Z,65.52
2017-04-20T04:23:52.703Z,65.51
2017-04-20T04:24:15.205Z,65.50
2017-04-20T04:24:37.044Z,65.65
2017-04-20T04:24:58.919Z,65.87
2017-04-20T04:25:20.644Z,65.97
2017-04-20T04:25:42.449Z,66.07
2017-04-20T04:26:04.435Z,66.10
2017-04-20T04:26:26.510Z,66.16
2017-04-20T04:26:51.125Z,66.04
2017-04-20T04:27:12.914Z,65.83
2017-04-20T04:27:34.682Z,65.69
2017-04-20T04:27:56.487Z,65.86
2017-04-20T04:28:18.468Z,65.97
2017-04-20T04:28:42.823Z,65.89
2017-04-20T04:29:04.564Z,65.85
2017-04-20T04:29:29.443Z,65.80
2017-04-20T04:29:54.501Z,66.22
2017-04-20T04:30:21.594Z,66.19
2017-04-20T04:30:43.569Z,66.01
2017-04-20T04:31:05.373Z,66.16
2017-04-20T04:31:27.100Z,66.17
2017-04-20T04:31:49.105Z,66.01
2017-04-20T04:32:10.805Z,65.98
2017-04-20T04:32:32.509Z,66.08
2017-04-20T04:32:54.199Z,66.34
2017-04-20T04:33:16.040Z,66.13
2017-04-20T04:33:37.767Z,66.05
2017-04-20T04:34:09.159Z,66.01
2017-04-20T04:34:30.825Z,66.02
2017-04-20T04:34:52.592Z,65.97
2017-04-20T04:35:14.321Z,66.07
2017-04-20T04:35:36.130Z,66.09
2017-04-20T04:35:57.867Z,66.13
2017-04-20T04:36:19.603Z,66.18
2017-04-20T04:36:41.349Z,66.60
2017-04-20T04:37:03.168Z,66.65
2017-04-20T04:37:24.893Z,66.46
2017-04-20T04:37:46.626Z,66.44
2017-04-20T04:38:08.372Z,66.36
2017-04-20T04:38:30.177Z,66.60
2017-04-20T04:38:51.923Z,66.83
2017-04-20T04:39:13.660Z,67.87
2017-04-20T04:39:35.397Z,68.35
2017-04-20T04:39:57.290Z,68.33
2017-04-20T04:40:19.047Z,68.29
2017-04-20T04:40:40.823Z,67.83
2017-04-20T04:41:02.688Z,68.05
2017-04-20T04:41:24.475Z,68.47
2017-04-20T04:41:46.275Z,68.77
2017-04-20T04:42:08.023Z,68.62
2017-04-20T04:42:29.830Z,68.38
2017-04-20T04:42:51.549Z,68.24
2017-04-20T04:43:13.285Z,68.08
2017-04-20T04:43:35.051Z,67.77
2017-04-20T04:43:56.856Z,67.66
2017-04-20T04:44:18.592Z,67.84
2017-04-20T04:44:40.327Z,67.53
2017-04-20T04:45:02.058Z,67.55
2017-04-20T04:45:23.876Z,67.59
2017-04-20T04:45:45.639Z,67.73
2017-04-20T04:46:07.372Z,67.37
2017-04-20T04:46:29.103Z,67.62
2017-04-20T04:46:50.841Z,67.93
2017-04-20T04:47:12.599Z,67.68
2017-04-20T04:47:34.363Z,67.64
2017-04-20T04:47:56.221Z,67.53
2017-04-20T04:48:17.971Z,67.74
2017-04-20T04:48:39.720Z,67.52
2017-04-20T04:49:01.460Z,67.16
2017-04-20T04:49:23.264Z,67.08
2017-04-20T04:49:44.964Z,66.96
2017-04-20T04:50:06.689Z,66.89
2017-04-20T04:50:28.404Z,66.85
2017-04-20T04:50:50.203Z,66.84
2017-04-20T04:51:11.943Z,66.68
2017-04-20T04:51:33.660Z,66.52
2017-04-20T04:51:55.569Z,66.54
2017-04-20T04:52:17.283Z,66.58
2017-04-20T04:52:39.197Z,66.54
2017-04-20T04:53:00.953Z,66.60
2017-04-20T04:53:22.767Z,66.34
2017-04-20T04:53:44.706Z,66.30
2017-04-20T04:54:06.449Z,66.27
2017-04-20T04:54:28.222Z,66.35
2017-04-20T04:54:49.923Z,66.40
2017-04-20T04:55:11.671Z,66.50
2017-04-20T04:55:33.390Z,66.43
2017-04-20T04:56:00.113Z,66.54
2017-04-20T04:56:22.016Z,66.44
2017-04-20T04:56:44.389Z,66.78
2017-04-20T04:57:09.601Z,66.71
2017-04-20T04:57:31.422Z,66.78
2017-04-20T04:57:53.401Z,66.93
2017-04-20T04:58:15.129Z,66.93
2017-04-20T04:58:36.860Z,66.90
2017-04-20T04:58:58.642Z,66.78
2017-04-20T04:59:21.604Z,66.86
2017-04-20T04:59:48.292Z,67.28
2017-04-20T05:00:10.068Z,67.06
2017-04-20T05:00:31.794Z,67.30
2017-04-20T05:00:53.649Z,67.39
2017-04-20T05:01:15.511Z,67.27
2017-04-20T05:01:37.294Z,67.30
2017-04-20T05:01:59.004Z,67.24
2017-04-20T05:02:20.777Z,67.17
2017-04-20T05:02:42.593Z,66.99
2017-04-20T05:03:04.341Z,66.99
2017-04-20T05:03:26.076Z,67.23
2017-04-20T05:03:47.819Z,66.92
2017-04-20T05:04:09.609Z,66.88
2017-04-20T05:04:31.466Z,66.87
2017-04-20T05:04:53.273Z,66.69
2017-04-20T05:05:15.045Z,66.62
2017-04-20T05:05:36.810Z,66.50
2017-04-20T05:05:58.548Z,66.49
2017-04-20T05:06:20.347Z,66.36
2017-04-20T05:06:42.122Z,66.23
2017-04-20T05:07:03.916Z,66.25
2017-04-20T05:07:25.672Z,66.57
2017-04-20T05:07:47.513Z,66.99
2017-04-20T05:08:09.249Z,66.93
2017-04-20T05:08:30.944Z,66.69
2017-04-20T05:08:52.654Z,66.69
2017-04-20T05:09:14.610Z,66.75
2017-04-20T05:09:36.378Z,66.49
2017-04-20T05:09:58.132Z,66.70
2017-04-20T05:10:19.895Z,66.77
2017-04-20T05:10:46.415Z,66.90
2017-04-20T05:11:08.178Z,66.78
2017-04-20T05:11:29.949Z,66.69
2017-04-20T05:11:51.648Z,66.74
2017-04-20T05:12:13.381Z,66.73
2017-04-20T05:12:35.182Z,66.51
2017-04-20T05:12:56.975Z,66.34
2017-04-20T05:13:23.506Z,66.28
2017-04-20T05:13:59.540Z,66.39
2017-04-20T05:14:21.252Z,66.32
2017-04-20T05:14:45.748Z,66.58
2017-04-20T05:15:07.538Z,66.58
2017-04-20T05:15:29.347Z,66.63
2017-04-20T05:15:51.140Z,66.49
2017-04-20T05:16:25.459Z,66.56
2017-04-20T05:16:47.195Z,66.38
2017-04-20T05:17:08.939Z,66.13
2017-04-20T05:17:30.637Z,66.24
2017-04-20T05:18:18.977Z,66.24
2017-04-20T05:18:40.737Z,66.14
2017-04-20T05:19:02.436Z,66.15
2017-04-20T05:19:24.151Z,66.29
2017-04-20T05:19:45.854Z,66.64
2017-04-20T05:20:07.655Z,66.83
2017-04-20T05:20:29.420Z,66.83
2017-04-20T05:20:51.179Z,66.86
2017-04-20T05:21:12.928Z,66.71
2017-04-20T05:21:34.652Z,66.46
2017-04-20T05:21:56.422Z,66.25
2017-04-20T05:22:18.116Z,66.46
2017-04-20T05:22:39.850Z,66.27
2017-04-20T05:23:01.556Z,66.48
2017-04-20T05:23:23.285Z,67.20
2017-04-20T05:23:45.049Z,67.69
2017-04-20T05:24:06.776Z,67.92
2017-04-20T05:24:28.584Z,68.09
2017-04-20T05:24:50.383Z,68.31
2017-04-20T05:25:12.182Z,67.95
2017-04-20T05:25:36.637Z,67.76
2017-04-20T05:25:58.365Z,67.52
2017-04-20T05:26:20.143Z,67.19
2017-04-20T05:26:46.758Z,66.99
2017-04-20T05:27:08.461Z,67.10
2017-04-20T05:27:30.205Z,67.59
2017-04-20T05:27:51.980Z,67.66
2017-04-20T05:28:13.790Z,67.55
2017-04-20T05:29:11.485Z,67.29
2017-04-20T05:29:33.253Z,67.12
2017-04-20T05:29:54.986Z,66.89
2017-04-20T05:30:16.740Z,66.68
2017-04-20T05:30:38.500Z,66.62
2017-04-20T05:31:00.223Z,66.61
2017-04-20T05:31:22.006Z,66.57
2017-04-20T05:31:43.809Z,66.56
2017-04-20T05:32:05.548Z,66.66
2017-04-20T05:32:27.352Z,66.58
2017-04-20T05:32:49.165Z,66.23
2017-04-20T05:33:13.595Z,65.97
2017-04-20T05:33:35.431Z,66.22
2017-04-20T05:33:57.166Z,66.40
2017-04-20T05:34:18.868Z,66.61